East Canton, Ohio
Current Conditions -  °F | °C
As of 5:51 PM on Thursday 23 Oct 2014 (Local Time) from KCAK Reporting Station
Scattered Clouds Scattered Clouds  
Wind Chill: 54°   Ceiling: Unl
Heat Index: 54°   Visibility: 10mi
Dew Point: 42°   Wind: 7mph
Humidity: 64%   Direction: 350°N
Pressure: 30.11"   Gusts: NA
Location:  40.7679°N, 81.2601°W
Report Text: KCAK 232151Z 35006KT 10SM FEW030 SCT250 12/06 A3011 RMK AO2 SLP200 T01220056
Loading
Personal Weather Stations






























Interactive Weather Map
Tropical Storm Tracking
New forecast layout! Learn more

10-Day Weather Forecast

Advertisements
Track Severe Weather on mobile